sensor_id;sensor_type;location;lat;lon;timestamp;temperature;humidity
2579;DHT22;1299;48.282;14.398;2023-07-20T00:01:33;21.50;99.90
2579;DHT22;1299;48.282;14.398;2023-07-20T00:04:00;21.30;99.90
2579;DHT22;1299;48.282;14.398;2023-07-20T00:06:27;21.30;99.90
2579;DHT22;1299;48.282;14.398;2023-07-20T00:08:56;21.40;99.90
2579;DHT22;1299;48.282;14.398;2023-07-20T00:11:27;21.40;99.90
2579;DHT22;1299;48.282;14.398;2023-07-20T00:13:54;21.20;99.90
2579;DHT22;1299;48.282;14.398;2023-07-20T00:16:21;21.20;99.90
2579;DHT22;1299;48.282;14.398;2023-07-20T00:18:48;21.20;99.90
2579;DHT22;1299;48.282;14.398;2023-07-20T00:21:14;21.00;99.90
2579;DHT22;1299;48.282;14.398;2023-07-20T00:23:41;21.00;99.90
2579;DHT22;1299;48.282;14.398;2023-07-20T00:26:10;21.00;99.90
2579;DHT22;1299;48.282;14.398;2023-07-20T00:28:37;20.90;99.90
2579;DHT22;1299;48.282;14.398;2023-07-20T00:31:04;20.60;99.90
2579;DHT22;1299;48.282;14.398;2023-07-20T00:33:31;20.70;99.90
2579;DHT22;1299;48.282;14.398;2023-07-20T00:35:58;20.70;99.90
2579;DHT22;1299;48.282;14.398;2023-07-20T00:38:25;20.70;99.90
2579;DHT22;1299;48.282;14.398;2023-07-20T00:40:52;20.60;99.90
2579;DHT22;1299;48.282;14.398;2023-07-20T00:43:20;20.60;99.90
2579;DHT22;1299;48.282;14.398;2023-07-20T00:45:47;20.40;99.90
2579;DHT22;1299;48.282;14.398;2023-07-20T00:48:14;20.50;99.90
2579;DHT22;1299;48.282;14.398;2023-07-20T00:50:42;20.50;99.90
2579;DHT22;1299;48.282;14.398;2023-07-20T00:53:09;20.10;99.90
2579;DHT22;1299;48.282;14.398;2023-07-20T00:55:37;20.20;99.90
2579;DHT22;1299;48.282;14.398;2023-07-20T00:58:04;20.30;99.90
2579;DHT22;1299;48.282;14.398;2023-07-20T01:00:32;20.50;99.90
2579;DHT22;1299;48.282;14.398;2023-07-20T01:02:59;20.50;99.90
2579;DHT22;1299;48.282;14.398;2023-07-20T01:05:36;20.50;99.90
2579;DHT22;1299;48.282;14.398;2023-07-20T01:08:12;20.60;99.90
2579;DHT22;1299;48.282;14.398;2023-07-20T01:10:43;20.60;99.90
2579;DHT22;1299;48.282;14.398;2023-07-20T01:13:14;20.60;99.90
2579;DHT22;1299;48.282;14.398;2023-07-20T01:15:49;20.40;99.90
2579;DHT22;1299;48.282;14.398;2023-07-20T01:18:16;20.40;99.90
2579;DHT22;1299;48.282;14.398;2023-07-20T01:20:44;20.50;99.90
2579;DHT22;1299;48.282;14.398;2023-07-20T01:23:26;20.50;99.90
2579;DHT22;1299;48.282;14.398;2023-07-20T01:26:19;20.50;99.90
2579;DHT22;1299;48.282;14.398;2023-07-20T01:29:22;20.50;99.90
2579;DHT22;1299;48.282;14.398;2023-07-20T01:31:55;20.40;99.90
2579;DHT22;1299;48.282;14.398;2023-07-20T01:34:23;20.40;99.90
2579;DHT22;1299;48.282;14.398;2023-07-20T01:36:52;20.40;99.90
2579;DHT22;1299;48.282;14.398;2023-07-20T01:39:21;20.20;99.90
2579;DHT22;1299;48.282;14.398;2023-07-20T01:41:48;20.20;99.90
2579;DHT22;1299;48.282;14.398;2023-07-20T01:44:15;20.20;99.90
2579;DHT22;1299;48.282;14.398;2023-07-20T01:46:42;20.20;99.90
2579;DHT22;1299;48.282;14.398;2023-07-20T01:49:10;20.10;99.90
2579;DHT22;1299;48.282;14.398;2023-07-20T01:51:37;20.10;99.90
2579;DHT22;1299;48.282;14.398;2023-07-20T01:54:04;20.10;99.90
2579;DHT22;1299;48.282;14.398;2023-07-20T01:56:31;20.10;99.90
2579;DHT22;1299;48.282;14.398;2023-07-20T01:58:58;20.10;99.90
2579;DHT22;1299;48.282;14.398;2023-07-20T02:01:26;20.10;99.90
2579;DHT22;1299;48.282;14.398;2023-07-20T02:03:54;20.20;99.90
2579;DHT22;1299;48.282;14.398;2023-07-20T02:06:22;20.20;99.90
2579;DHT22;1299;48.282;14.398;2023-07-20T02:08:49;20.10;99.90
2579;DHT22;1299;48.282;14.398;2023-07-20T02:11:16;20.10;99.90
2579;DHT22;1299;48.282;14.398;2023-07-20T02:13:43;20.10;99.90
2579;DHT22;1299;48.282;14.398;2023-07-20T02:16:10;20.10;99.90
2579;DHT22;1299;48.282;14.398;2023-07-20T02:18:38;20.10;99.90
2579;DHT22;1299;48.282;14.398;2023-07-20T02:21:05;20.10;99.90
2579;DHT22;1299;48.282;14.398;2023-07-20T02:23:33;20.10;99.90
2579;DHT22;1299;48.282;14.398;2023-07-20T02:26:00;20.10;99.90
2579;DHT22;1299;48.282;14.398;2023-07-20T02:28:27;20.10;99.90
2579;DHT22;1299;48.282;14.398;2023-07-20T02:30:54;20.10;99.90
2579;DHT22;1299;48.282;14.398;2023-07-20T02:33:21;20.10;99.90
2579;DHT22;1299;48.282;14.398;2023-07-20T02:35:48;20.10;99.90
2579;DHT22;1299;48.282;14.398;2023-07-20T02:38:15;20.00;99.90
2579;DHT22;1299;48.282;14.398;2023-07-20T02:40:43;19.90;99.90
2579;DHT22;1299;48.282;14.398;2023-07-20T02:43:10;20.00;99.90
2579;DHT22;1299;48.282;14.398;2023-07-20T02:45:40;20.00;99.90
2579;DHT22;1299;48.282;14.398;2023-07-20T02:48:07;20.20;99.90
2579;DHT22;1299;48.282;14.398;2023-07-20T02:50:34;20.30;99.90
2579;DHT22;1299;48.282;14.398;2023-07-20T02:53:02;20.30;99.90
2579;DHT22;1299;48.282;14.398;2023-07-20T02:55:29;20.30;99.90
2579;DHT22;1299;48.282;14.398;2023-07-20T02:57:57;20.40;99.90
2579;DHT22;1299;48.282;14.398;2023-07-20T03:00:24;20.50;99.90
2579;DHT22;1299;48.282;14.398;2023-07-20T03:02:51;20.50;99.90
2579;DHT22;1299;48.282;14.398;2023-07-20T03:05:21;20.60;99.90
2579;DHT22;1299;48.282;14.398;2023-07-20T03:07:48;20.60;99.90
2579;DHT22;1299;48.282;14.398;2023-07-20T03:10:15;20.50;99.90
2579;DHT22;1299;48.282;14.398;2023-07-20T03:12:42;20.50;99.90
2579;DHT22;1299;48.282;14.398;2023-07-20T03:15:11;20.60;99.90
2579;DHT22;1299;48.282;14.398;2023-07-20T03:17:38;20.60;99.90
2579;DHT22;1299;48.282;14.398;2023-07-20T03:20:06;20.70;99.90
2579;DHT22;1299;48.282;14.398;2023-07-20T03:22:35;20.40;99.90
2579;DHT22;1299;48.282;14.398;2023-07-20T03:25:02;20.40;99.90
2579;DHT22;1299;48.282;14.398;2023-07-20T03:27:30;20.60;99.90
2579;DHT22;1299;48.282;14.398;2023-07-20T03:29:56;20.60;99.90
2579;DHT22;1299;48.282;14.398;2023-07-20T03:32:25;20.60;99.90
2579;DHT22;1299;48.282;14.398;2023-07-20T03:34:52;20.60;99.90
2579;DHT22;1299;48.282;14.398;2023-07-20T03:37:19;20.60;99.90
2579;DHT22;1299;48.282;14.398;2023-07-20T03:39:46;20.60;99.90
2579;DHT22;1299;48.282;14.398;2023-07-20T03:42:13;20.50;99.90
2579;DHT22;1299;48.282;14.398;2023-07-20T03:44:40;20.50;99.90
2579;DHT22;1299;48.282;14.398;2023-07-20T03:47:07;20.40;99.90
2579;DHT22;1299;48.282;14.398;2023-07-20T03:49:36;20.40;99.90
2579;DHT22;1299;48.282;14.398;2023-07-20T03:52:03;20.40;99.90
2579;DHT22;1299;48.282;14.398;2023-07-20T03:54:30;19.90;99.90
2579;DHT22;1299;48.282;14.398;2023-07-20T03:56:57;20.20;99.90
2579;DHT22;1299;48.282;14.398;2023-07-20T03:59:26;20.40;99.90
2579;DHT22;1299;48.282;14.398;2023-07-20T04:01:53;20.40;99.90
2579;DHT22;1299;48.282;14.398;2023-07-20T04:04:20;20.40;99.90
2579;DHT22;1299;48.282;14.398;2023-07-20T04:06:48;20.40;99.90
2579;DHT22;1299;48.282;14.398;2023-07-20T04:09:15;20.30;99.90
2579;DHT22;1299;48.282;14.398;2023-07-20T04:11:42;20.40;99.90
2579;DHT22;1299;48.282;14.398;2023-07-20T04:14:09;20.50;99.90
2579;DHT22;1299;48.282;14.398;2023-07-20T04:16:36;20.50;99.90
2579;DHT22;1299;48.282;14.398;2023-07-20T04:19:03;20.50;99.90
2579;DHT22;1299;48.282;14.398;2023-07-20T04:21:30;20.50;99.90
2579;DHT22;1299;48.282;14.398;2023-07-20T04:23:58;20.60;99.90
2579;DHT22;1299;48.282;14.398;2023-07-20T04:26:25;20.60;99.90
2579;DHT22;1299;48.282;14.398;2023-07-20T04:28:52;20.70;99.90
2579;DHT22;1299;48.282;14.398;2023-07-20T04:31:19;20.70;99.90
2579;DHT22;1299;48.282;14.398;2023-07-20T04:33:45;20.80;99.90
2579;DHT22;1299;48.282;14.398;2023-07-20T04:36:12;20.70;99.90
2579;DHT22;1299;48.282;14.398;2023-07-20T04:38:42;20.80;99.90
2579;DHT22;1299;48.282;14.398;2023-07-20T04:41:10;20.70;99.90
2579;DHT22;1299;48.282;14.398;2023-07-20T04:43:41;20.80;99.90
2579;DHT22;1299;48.282;14.398;2023-07-20T04:46:08;20.80;99.90
2579;DHT22;1299;48.282;14.398;2023-07-20T04:48:34;20.80;99.90
2579;DHT22;1299;48.282;14.398;2023-07-20T04:51:02;20.70;99.90
2579;DHT22;1299;48.282;14.398;2023-07-20T04:53:29;20.80;99.90
2579;DHT22;1299;48.282;14.398;2023-07-20T04:55:56;21.00;99.90
2579;DHT22;1299;48.282;14.398;2023-07-20T04:58:25;21.10;99.90
2579;DHT22;1299;48.282;14.398;2023-07-20T05:00:51;21.10;99.90
2579;DHT22;1299;48.282;14.398;2023-07-20T05:03:18;21.20;99.90
2579;DHT22;1299;48.282;14.398;2023-07-20T05:05:46;21.30;99.90
2579;DHT22;1299;48.282;14.398;2023-07-20T05:08:13;21.40;99.90
2579;DHT22;1299;48.282;14.398;2023-07-20T05:10:40;21.60;99.90
2579;DHT22;1299;48.282;14.398;2023-07-20T05:13:07;21.70;99.90
2579;DHT22;1299;48.282;14.398;2023-07-20T05:15:35;21.80;99.90
2579;DHT22;1299;48.282;14.398;2023-07-20T05:18:02;21.70;99.90
2579;DHT22;1299;48.282;14.398;2023-07-20T05:20:29;21.70;99.90
2579;DHT22;1299;48.282;14.398;2023-07-20T05:22:57;21.60;99.90
2579;DHT22;1299;48.282;14.398;2023-07-20T05:25:24;21.70;99.90
2579;DHT22;1299;48.282;14.398;2023-07-20T05:27:52;21.70;99.90
2579;DHT22;1299;48.282;14.398;2023-07-20T05:30:21;21.60;99.90
2579;DHT22;1299;48.282;14.398;2023-07-20T05:32:49;21.60;99.90
2579;DHT22;1299;48.282;14.398;2023-07-20T05:35:17;21.70;99.90
2579;DHT22;1299;48.282;14.398;2023-07-20T05:37:44;21.70;99.90
2579;DHT22;1299;48.282;14.398;2023-07-20T05:40:12;21.90;99.90
2579;DHT22;1299;48.282;14.398;2023-07-20T05:42:40;21.80;99.90
2579;DHT22;1299;48.282;14.398;2023-07-20T05:45:07;21.70;99.90
2579;DHT22;1299;48.282;14.398;2023-07-20T05:47:34;21.90;99.90
2579;DHT22;1299;48.282;14.398;2023-07-20T05:50:02;22.00;99.90
2579;DHT22;1299;48.282;14.398;2023-07-20T05:52:30;22.00;99.90
2579;DHT22;1299;48.282;14.398;2023-07-20T05:54:57;22.00;99.90
2579;DHT22;1299;48.282;14.398;2023-07-20T05:57:23;22.00;99.90
2579;DHT22;1299;48.282;14.398;2023-07-20T05:59:51;22.20;99.90
2579;DHT22;1299;48.282;14.398;2023-07-20T06:02:17;22.30;99.90
2579;DHT22;1299;48.282;14.398;2023-07-20T06:04:45;22.40;99.90
2579;DHT22;1299;48.282;14.398;2023-07-20T06:07:13;22.60;99.90
2579;DHT22;1299;48.282;14.398;2023-07-20T06:09:40;22.70;99.90
2579;DHT22;1299;48.282;14.398;2023-07-20T06:12:08;23.00;99.90
2579;DHT22;1299;48.282;14.398;2023-07-20T06:14:35;23.60;99.90
2579;DHT22;1299;48.282;14.398;2023-07-20T06:17:02;24.00;99.90
2579;DHT22;1299;48.282;14.398;2023-07-20T06:19:29;24.00;99.90
2579;DHT22;1299;48.282;14.398;2023-07-20T06:21:55;24.00;99.90
2579;DHT22;1299;48.282;14.398;2023-07-20T06:24:24;24.30;99.90
2579;DHT22;1299;48.282;14.398;2023-07-20T06:26:50;24.30;99.90
2579;DHT22;1299;48.282;14.398;2023-07-20T06:29:17;24.30;99.90
2579;DHT22;1299;48.282;14.398;2023-07-20T06:31:44;24.40;99.90
2579;DHT22;1299;48.282;14.398;2023-07-20T06:34:11;24.30;99.90
2579;DHT22;1299;48.282;14.398;2023-07-20T06:36:38;23.90;99.90
2579;DHT22;1299;48.282;14.398;2023-07-20T06:39:05;23.90;99.90
2579;DHT22;1299;48.282;14.398;2023-07-20T06:41:33;23.80;99.90
2579;DHT22;1299;48.282;14.398;2023-07-20T06:44:00;23.70;99.90
2579;DHT22;1299;48.282;14.398;2023-07-20T06:46:27;23.60;99.90
2579;DHT22;1299;48.282;14.398;2023-07-20T06:48:54;23.80;99.90
2579;DHT22;1299;48.282;14.398;2023-07-20T06:51:22;24.00;99.90
2579;DHT22;1299;48.282;14.398;2023-07-20T06:53:49;24.40;99.90
2579;DHT22;1299;48.282;14.398;2023-07-20T06:56:15;24.40;99.90
2579;DHT22;1299;48.282;14.398;2023-07-20T06:58:44;24.60;99.90
2579;DHT22;1299;48.282;14.398;2023-07-20T07:01:10;24.90;99.90
2579;DHT22;1299;48.282;14.398;2023-07-20T07:03:37;24.90;99.90
2579;DHT22;1299;48.282;14.398;2023-07-20T07:06:04;24.90;99.90
2579;DHT22;1299;48.282;14.398;2023-07-20T07:08:31;25.20;99.90
2579;DHT22;1299;48.282;14.398;2023-07-20T07:10:58;25.10;99.90
2579;DHT22;1299;48.282;14.398;2023-07-20T07:13:25;24.90;99.90
2579;DHT22;1299;48.282;14.398;2023-07-20T07:15:53;24.60;99.90
2579;DHT22;1299;48.282;14.398;2023-07-20T07:18:20;24.60;99.90
2579;DHT22;1299;48.282;14.398;2023-07-20T07:20:53;24.70;99.90
2579;DHT22;1299;48.282;14.398;2023-07-20T07:23:20;24.80;99.90
2579;DHT22;1299;48.282;14.398;2023-07-20T07:25:47;24.50;99.90
2579;DHT22;1299;48.282;14.398;2023-07-20T07:28:14;24.10;99.90
2579;DHT22;1299;48.282;14.398;2023-07-20T07:30:41;24.30;99.90
2579;DHT22;1299;48.282;14.398;2023-07-20T07:33:09;24.40;99.90
2579;DHT22;1299;48.282;14.398;2023-07-20T07:35:36;24.50;99.90
2579;DHT22;1299;48.282;14.398;2023-07-20T07:38:03;24.50;99.90
2579;DHT22;1299;48.282;14.398;2023-07-20T07:40:30;24.50;99.90
2579;DHT22;1299;48.282;14.398;2023-07-20T07:42:57;24.70;99.90
2579;DHT22;1299;48.282;14.398;2023-07-20T07:45:24;24.80;99.90
2579;DHT22;1299;48.282;14.398;2023-07-20T07:47:51;25.20;99.90
2579;DHT22;1299;48.282;14.398;2023-07-20T07:50:19;25.10;99.90
2579;DHT22;1299;48.282;14.398;2023-07-20T07:52:46;25.20;99.90
2579;DHT22;1299;48.282;14.398;2023-07-20T07:55:13;25.50;99.90
2579;DHT22;1299;48.282;14.398;2023-07-20T07:57:42;25.20;99.90
2579;DHT22;1299;48.282;14.398;2023-07-20T08:00:10;25.10;99.90
2579;DHT22;1299;48.282;14.398;2023-07-20T08:02:40;25.50;99.90
2579;DHT22;1299;48.282;14.398;2023-07-20T08:05:07;25.70;99.90
2579;DHT22;1299;48.282;14.398;2023-07-20T08:07:36;25.70;99.90
2579;DHT22;1299;48.282;14.398;2023-07-20T08:10:03;26.00;99.90
2579;DHT22;1299;48.282;14.398;2023-07-20T08:12:30;26.10;99.90
2579;DHT22;1299;48.282;14.398;2023-07-20T08:14:57;26.30;99.90
2579;DHT22;1299;48.282;14.398;2023-07-20T08:17:24;26.10;99.90
2579;DHT22;1299;48.282;14.398;2023-07-20T08:19:51;26.10;99.90
2579;DHT22;1299;48.282;14.398;2023-07-20T08:22:17;26.30;99.90
2579;DHT22;1299;48.282;14.398;2023-07-20T08:24:46;26.00;99.90
2579;DHT22;1299;48.282;14.398;2023-07-20T08:27:13;25.70;99.90
2579;DHT22;1299;48.282;14.398;2023-07-20T08:29:40;25.80;99.90
2579;DHT22;1299;48.282;14.398;2023-07-20T08:32:07;25.50;99.90
2579;DHT22;1299;48.282;14.398;2023-07-20T08:34:34;25.80;99.90
2579;DHT22;1299;48.282;14.398;2023-07-20T08:37:01;26.10;99.90
2579;DHT22;1299;48.282;14.398;2023-07-20T08:39:28;25.80;99.90
2579;DHT22;1299;48.282;14.398;2023-07-20T08:41:57;26.10;99.90
2579;DHT22;1299;48.282;14.398;2023-07-20T08:44:27;26.00;99.90
2579;DHT22;1299;48.282;14.398;2023-07-20T08:46:54;26.00;99.90
2579;DHT22;1299;48.282;14.398;2023-07-20T08:49:21;25.90;99.90
2579;DHT22;1299;48.282;14.398;2023-07-20T08:51:48;26.10;99.90
2579;DHT22;1299;48.282;14.398;2023-07-20T08:54:16;26.10;99.90
2579;DHT22;1299;48.282;14.398;2023-07-20T08:56:45;26.30;99.90
2579;DHT22;1299;48.282;14.398;2023-07-20T08:59:16;26.50;99.90
2579;DHT22;1299;48.282;14.398;2023-07-20T09:01:44;26.50;99.90
2579;DHT22;1299;48.282;14.398;2023-07-20T09:04:11;26.70;99.90
2579;DHT22;1299;48.282;14.398;2023-07-20T09:06:39;26.90;99.90
2579;DHT22;1299;48.282;14.398;2023-07-20T09:09:06;26.40;98.80
2579;DHT22;1299;48.282;14.398;2023-07-20T09:11:33;26.30;99.90
2579;DHT22;1299;48.282;14.398;2023-07-20T09:14:04;26.10;99.90
2579;DHT22;1299;48.282;14.398;2023-07-20T09:16:33;26.40;99.90
2579;DHT22;1299;48.282;14.398;2023-07-20T09:19:14;26.10;99.90
2579;DHT22;1299;48.282;14.398;2023-07-20T09:21:44;26.10;99.90
2579;DHT22;1299;48.282;14.398;2023-07-20T09:24:11;26.10;99.90
2579;DHT22;1299;48.282;14.398;2023-07-20T09:26:41;26.30;99.90
2579;DHT22;1299;48.282;14.398;2023-07-20T09:29:08;26.30;97.40
2579;DHT22;1299;48.282;14.398;2023-07-20T09:31:37;26.40;98.20
2579;DHT22;1299;48.282;14.398;2023-07-20T09:34:05;26.50;97.50
2579;DHT22;1299;48.282;14.398;2023-07-20T09:36:33;26.70;95.60
2579;DHT22;1299;48.282;14.398;2023-07-20T09:39:02;27.00;96.50
2579;DHT22;1299;48.282;14.398;2023-07-20T09:41:29;27.00;97.10
2579;DHT22;1299;48.282;14.398;2023-07-20T09:43:56;26.90;95.20
2579;DHT22;1299;48.282;14.398;2023-07-20T09:46:23;26.80;95.20
2579;DHT22;1299;48.282;14.398;2023-07-20T09:48:54;26.90;94.40
2579;DHT22;1299;48.282;14.398;2023-07-20T09:51:22;26.90;94.10
2579;DHT22;1299;48.282;14.398;2023-07-20T09:53:52;26.60;93.80
2579;DHT22;1299;48.282;14.398;2023-07-20T09:56:21;26.50;94.00
2579;DHT22;1299;48.282;14.398;2023-07-20T09:58:48;26.60;94.90
2579;DHT22;1299;48.282;14.398;2023-07-20T10:01:20;26.60;94.70
2579;DHT22;1299;48.282;14.398;2023-07-20T10:03:49;26.40;94.90
2579;DHT22;1299;48.282;14.398;2023-07-20T10:06:22;26.40;94.70
2579;DHT22;1299;48.282;14.398;2023-07-20T10:08:53;26.70;94.50
2579;DHT22;1299;48.282;14.398;2023-07-20T10:11:22;26.70;94.70
2579;DHT22;1299;48.282;14.398;2023-07-20T10:13:53;27.20;94.60
2579;DHT22;1299;48.282;14.398;2023-07-20T10:16:23;27.00;95.20
2579;DHT22;1299;48.282;14.398;2023-07-20T10:19:02;27.20;94.10
2579;DHT22;1299;48.282;14.398;2023-07-20T10:21:33;27.30;93.60
2579;DHT22;1299;48.282;14.398;2023-07-20T10:24:03;27.40;93.90
2579;DHT22;1299;48.282;14.398;2023-07-20T10:26:30;27.40;91.50
2579;DHT22;1299;48.282;14.398;2023-07-20T10:28:58;27.20;92.30
2579;DHT22;1299;48.282;14.398;2023-07-20T10:31:25;27.20;91.30
2579;DHT22;1299;48.282;14.398;2023-07-20T10:33:56;27.00;91.30
2579;DHT22;1299;48.282;14.398;2023-07-20T10:36:25;27.10;91.30
2579;DHT22;1299;48.282;14.398;2023-07-20T10:38:54;27.20;92.70
2579;DHT22;1299;48.282;14.398;2023-07-20T10:41:28;27.30;91.50
2579;DHT22;1299;48.282;14.398;2023-07-20T10:43:58;27.40;92.80
2579;DHT22;1299;48.282;14.398;2023-07-20T10:46:43;27.30;93.30
2579;DHT22;1299;48.282;14.398;2023-07-20T10:49:12;27.50;91.20
2579;DHT22;1299;48.282;14.398;2023-07-20T10:51:41;27.50;89.70
2579;DHT22;1299;48.282;14.398;2023-07-20T10:54:34;27.70;91.90
2579;DHT22;1299;48.282;14.398;2023-07-20T10:57:22;27.90;91.70
2579;DHT22;1299;48.282;14.398;2023-07-20T10:59:49;28.20;93.50
2579;DHT22;1299;48.282;14.398;2023-07-20T11:02:18;28.50;93.00
2579;DHT22;1299;48.282;14.398;2023-07-20T11:04:47;28.60;91.40
2579;DHT22;1299;48.282;14.398;2023-07-20T11:07:23;28.50;88.60
2579;DHT22;1299;48.282;14.398;2023-07-20T11:10:14;28.40;90.20
2579;DHT22;1299;48.282;14.398;2023-07-20T11:13:18;28.40;91.10
2579;DHT22;1299;48.282;14.398;2023-07-20T11:15:45;28.10;88.60
2579;DHT22;1299;48.282;14.398;2023-07-20T11:18:13;27.90;90.90
2579;DHT22;1299;48.282;14.398;2023-07-20T11:20:41;27.90;90.00
2579;DHT22;1299;48.282;14.398;2023-07-20T11:23:09;27.80;90.70
2579;DHT22;1299;48.282;14.398;2023-07-20T11:25:39;27.60;90.60
2579;DHT22;1299;48.282;14.398;2023-07-20T11:28:07;27.70;89.70
2579;DHT22;1299;48.282;14.398;2023-07-20T11:30:37;27.70;89.70
2579;DHT22;1299;48.282;14.398;2023-07-20T11:33:04;27.60;88.50
2579;DHT22;1299;48.282;14.398;2023-07-20T11:35:35;27.90;91.80
2579;DHT22;1299;48.282;14.398;2023-07-20T11:38:02;27.80;91.10
2579;DHT22;1299;48.282;14.398;2023-07-20T11:40:29;27.70;90.50
2579;DHT22;1299;48.282;14.398;2023-07-20T11:42:56;27.90;89.80
2579;DHT22;1299;48.282;14.398;2023-07-20T11:45:23;28.00;90.50
2579;DHT22;1299;48.282;14.398;2023-07-20T11:47:52;27.80;88.20
2579;DHT22;1299;48.282;14.398;2023-07-20T11:50:19;27.70;87.70
2579;DHT22;1299;48.282;14.398;2023-07-20T11:52:46;28.00;88.60
2579;DHT22;1299;48.282;14.398;2023-07-20T11:55:13;28.10;87.60
2579;DHT22;1299;48.282;14.398;2023-07-20T11:57:40;28.00;88.60
2579;DHT22;1299;48.282;14.398;2023-07-20T12:00:08;28.30;89.60
2579;DHT22;1299;48.282;14.398;2023-07-20T12:02:38;28.50;87.70
2579;DHT22;1299;48.282;14.398;2023-07-20T12:05:07;28.40;88.50
2579;DHT22;1299;48.282;14.398;2023-07-20T12:07:35;28.50;88.70
2579;DHT22;1299;48.282;14.398;2023-07-20T12:10:05;28.40;88.30
2579;DHT22;1299;48.282;14.398;2023-07-20T12:12:33;28.50;88.40
2579;DHT22;1299;48.282;14.398;2023-07-20T12:15:16;28.60;85.70
2579;DHT22;1299;48.282;14.398;2023-07-20T12:17:43;28.30;87.30
2579;DHT22;1299;48.282;14.398;2023-07-20T12:20:12;28.10;83.90
2579;DHT22;1299;48.282;14.398;2023-07-20T12:22:40;28.20;84.30
2579;DHT22;1299;48.282;14.398;2023-07-20T12:25:07;28.60;86.70
2579;DHT22;1299;48.282;14.398;2023-07-20T12:27:36;28.70;85.30
2579;DHT22;1299;48.282;14.398;2023-07-20T12:30:05;28.60;83.40
2579;DHT22;1299;48.282;14.398;2023-07-20T12:32:33;28.30;81.90
2579;DHT22;1299;48.282;14.398;2023-07-20T12:35:00;28.30;81.30
2579;DHT22;1299;48.282;14.398;2023-07-20T12:37:28;28.40;83.80
2579;DHT22;1299;48.282;14.398;2023-07-20T12:39:55;28.70;81.40
2579;DHT22;1299;48.282;14.398;2023-07-20T12:42:22;28.50;82.30
2579;DHT22;1299;48.282;14.398;2023-07-20T12:44:49;28.30;83.50
2579;DHT22;1299;48.282;14.398;2023-07-20T12:47:17;28.30;83.20
2579;DHT22;1299;48.282;14.398;2023-07-20T12:49:44;28.30;80.10
2579;DHT22;1299;48.282;14.398;2023-07-20T12:52:12;28.60;81.00
2579;DHT22;1299;48.282;14.398;2023-07-20T12:54:41;28.70;82.70
2579;DHT22;1299;48.282;14.398;2023-07-20T12:57:08;29.20;82.80
2579;DHT22;1299;48.282;14.398;2023-07-20T12:59:35;29.40;80.90
2579;DHT22;1299;48.282;14.398;2023-07-20T13:02:02;29.30;81.20
2579;DHT22;1299;48.282;14.398;2023-07-20T13:04:30;29.00;80.40
2579;DHT22;1299;48.282;14.398;2023-07-20T13:06:56;28.50;81.20
2579;DHT22;1299;48.282;14.398;2023-07-20T13:09:24;28.30;80.80
2579;DHT22;1299;48.282;14.398;2023-07-20T13:11:53;28.60;80.00
2579;DHT22;1299;48.282;14.398;2023-07-20T13:14:19;29.00;80.50
2579;DHT22;1299;48.282;14.398;2023-07-20T13:16:46;29.00;77.80
2579;DHT22;1299;48.282;14.398;2023-07-20T13:19:13;29.00;78.90
2579;DHT22;1299;48.282;14.398;2023-07-20T13:21:40;29.00;80.30
2579;DHT22;1299;48.282;14.398;2023-07-20T13:24:08;28.90;78.70
2579;DHT22;1299;48.282;14.398;2023-07-20T13:26:35;28.70;79.60
2579;DHT22;1299;48.282;14.398;2023-07-20T13:29:03;28.90;80.20
2579;DHT22;1299;48.282;14.398;2023-07-20T13:31:31;28.70;79.90
2579;DHT22;1299;48.282;14.398;2023-07-20T13:33:58;28.90;80.80
2579;DHT22;1299;48.282;14.398;2023-07-20T13:36:25;29.10;79.90
2579;DHT22;1299;48.282;14.398;2023-07-20T13:38:52;29.10;79.50
2579;DHT22;1299;48.282;14.398;2023-07-20T13:41:19;29.10;81.10
2579;DHT22;1299;48.282;14.398;2023-07-20T13:43:46;28.90;79.10
2579;DHT22;1299;48.282;14.398;2023-07-20T13:46:14;28.90;79.10
2579;DHT22;1299;48.282;14.398;2023-07-20T13:48:42;28.90;80.10
2579;DHT22;1299;48.282;14.398;2023-07-20T13:51:08;28.70;79.80
2579;DHT22;1299;48.282;14.398;2023-07-20T13:53:35;28.70;79.80
2579;DHT22;1299;48.282;14.398;2023-07-20T13:56:02;29.00;80.20
2579;DHT22;1299;48.282;14.398;2023-07-20T13:58:30;28.80;79.20
2579;DHT22;1299;48.282;14.398;2023-07-20T14:00:56;28.60;79.00
2579;DHT22;1299;48.282;14.398;2023-07-20T14:03:25;28.20;79.40
2579;DHT22;1299;48.282;14.398;2023-07-20T14:05:52;28.10;80.50
2579;DHT22;1299;48.282;14.398;2023-07-20T14:08:19;28.20;78.40
2579;DHT22;1299;48.282;14.398;2023-07-20T14:10:45;28.30;78.40
2579;DHT22;1299;48.282;14.398;2023-07-20T14:13:12;28.20;79.00
2579;DHT22;1299;48.282;14.398;2023-07-20T14:15:39;27.80;79.60
2579;DHT22;1299;48.282;14.398;2023-07-20T14:18:06;28.20;79.70
2579;DHT22;1299;48.282;14.398;2023-07-20T14:20:35;28.40;80.90
2579;DHT22;1299;48.282;14.398;2023-07-20T14:23:02;28.40;79.60
2579;DHT22;1299;48.282;14.398;2023-07-20T14:25:28;28.40;78.80
2579;DHT22;1299;48.282;14.398;2023-07-20T14:27:55;28.20;79.00
2579;DHT22;1299;48.282;14.398;2023-07-20T14:30:23;28.30;80.40
2579;DHT22;1299;48.282;14.398;2023-07-20T14:32:50;28.70;82.90
2579;DHT22;1299;48.282;14.398;2023-07-20T14:35:17;28.50;81.10
2579;DHT22;1299;48.282;14.398;2023-07-20T14:37:45;28.40;80.10
2579;DHT22;1299;48.282;14.398;2023-07-20T14:40:13;28.50;78.70
2579;DHT22;1299;48.282;14.398;2023-07-20T14:42:40;28.50;80.30
2579;DHT22;1299;48.282;14.398;2023-07-20T14:45:17;28.70;78.60
2579;DHT22;1299;48.282;14.398;2023-07-20T14:47:44;28.50;79.00
2579;DHT22;1299;48.282;14.398;2023-07-20T14:50:20;28.30;79.10
2579;DHT22;1299;48.282;14.398;2023-07-20T14:52:49;28.50;79.20
2579;DHT22;1299;48.282;14.398;2023-07-20T14:55:16;28.70;79.60
2579;DHT22;1299;48.282;14.398;2023-07-20T14:57:44;28.80;78.30
2579;DHT22;1299;48.282;14.398;2023-07-20T15:00:12;28.70;78.00
2579;DHT22;1299;48.282;14.398;2023-07-20T15:02:39;28.90;78.40
2579;DHT22;1299;48.282;14.398;2023-07-20T15:05:07;29.00;78.10
2579;DHT22;1299;48.282;14.398;2023-07-20T15:07:35;29.10;76.80
2579;DHT22;1299;48.282;14.398;2023-07-20T15:10:04;28.80;77.70
2579;DHT22;1299;48.282;14.398;2023-07-20T15:12:31;28.60;78.20
2579;DHT22;1299;48.282;14.398;2023-07-20T15:15:06;28.60;80.40
2579;DHT22;1299;48.282;14.398;2023-07-20T15:17:35;28.70;78.70
2579;DHT22;1299;48.282;14.398;2023-07-20T15:20:04;28.70;78.00
2579;DHT22;1299;48.282;14.398;2023-07-20T15:22:31;28.70;77.10
2579;DHT22;1299;48.282;14.398;2023-07-20T15:24:59;28.60;76.70
2579;DHT22;1299;48.282;14.398;2023-07-20T15:27:27;28.40;77.90
2579;DHT22;1299;48.282;14.398;2023-07-20T15:29:54;28.50;79.20
2579;DHT22;1299;48.282;14.398;2023-07-20T15:32:21;28.40;80.00
2579;DHT22;1299;48.282;14.398;2023-07-20T15:34:48;28.30;78.60
2579;DHT22;1299;48.282;14.398;2023-07-20T15:37:15;28.40;77.70
2579;DHT22;1299;48.282;14.398;2023-07-20T15:39:42;28.20;78.60
2579;DHT22;1299;48.282;14.398;2023-07-20T15:42:09;28.00;77.80
2579;DHT22;1299;48.282;14.398;2023-07-20T15:44:37;28.20;79.50
2579;DHT22;1299;48.282;14.398;2023-07-20T15:47:04;28.00;76.40
2579;DHT22;1299;48.282;14.398;2023-07-20T15:49:32;27.90;78.20
2579;DHT22;1299;48.282;14.398;2023-07-20T15:52:00;28.10;77.90